createdAt,value
2022-08-17T00:01:41.675Z,101239.56
2022-08-17T00:04:22.491Z,101258.81
2022-08-17T00:06:53.448Z,101251.84
2022-08-17T00:09:22.895Z,101248.94
2022-08-17T00:12:41.674Z,101244.91
2022-08-17T00:14:43.735Z,101259.63
2022-08-17T00:17:12.987Z,101259.78
2022-08-17T00:19:42.361Z,101252.97
2022-08-17T00:22:33.253Z,101251.50
2022-08-17T00:25:00.809Z,101260.56
2022-08-17T00:27:33.739Z,101257.53
2022-08-17T00:30:03.120Z,101252.16
2022-08-17T00:33:15.012Z,101247.13
2022-08-17T00:35:29.719Z,101248.28
2022-08-17T00:37:58.999Z,101237.13
2022-08-17T00:40:44.630Z,101249.75
2022-08-17T00:43:22.522Z,101236.13
2022-08-17T00:45:51.938Z,101261.88
2022-08-17T00:48:27.218Z,101221.66
2022-08-17T00:51:06.565Z,101234.50
2022-08-17T00:53:42.012Z,101214.91
2022-08-17T00:56:18.729Z,101190.78
2022-08-17T00:58:53.169Z,101244.72
2022-08-17T01:01:23.074Z,101224.00
2022-08-17T01:03:57.047Z,101250.56
2022-08-17T01:06:30.942Z,101247.00
2022-08-17T01:09:02.216Z,101242.31
2022-08-17T01:11:33.284Z,101247.81
2022-08-17T01:14:04.885Z,101171.22
2022-08-17T01:16:34.878Z,101225.47
2022-08-17T01:19:12.050Z,101246.34
2022-08-17T01:22:00.159Z,101245.06
2022-08-17T01:24:31.735Z,101237.28
2022-08-17T01:27:10.185Z,101247.00
2022-08-17T01:29:45.438Z,101230.00
2022-08-17T01:32:15.501Z,101250.22
2022-08-17T01:34:50.480Z,101249.59
2022-08-17T01:37:28.944Z,101248.28
2022-08-17T01:40:05.708Z,101249.91
2022-08-17T01:42:43.022Z,101255.41
2022-08-17T01:45:18.506Z,101263.19
2022-08-17T01:47:48.209Z,101233.91
2022-08-17T01:50:23.442Z,101251.69
2022-08-17T01:53:01.302Z,101241.81
2022-08-17T01:55:39.590Z,101258.34
2022-08-17T01:58:09.931Z,101260.75
2022-08-17T02:00:59.418Z,101242.44
2022-08-17T02:03:32.450Z,101245.53
2022-08-17T02:06:02.010Z,101229.69
2022-08-17T02:08:39.547Z,101253.97
2022-08-17T02:11:23.659Z,101234.38
2022-08-17T02:13:57.947Z,101212.38
2022-08-17T02:16:37.376Z,101255.09
2022-08-17T02:19:11.412Z,101248.63
2022-08-17T02:21:44.101Z,101260.91
2022-08-17T02:24:58.170Z,101250.41
2022-08-17T02:27:10.962Z,101261.88
2022-08-17T02:29:40.606Z,101262.69
2022-08-17T02:32:28.163Z,101238.41
2022-08-17T02:35:00.505Z,101252.81
2022-08-17T02:37:31.228Z,101253.13
2022-08-17T02:40:00.761Z,101256.53
2022-08-17T02:42:34.869Z,101247.47
2022-08-17T02:45:06.499Z,101245.84
2022-08-17T02:47:36.853Z,101254.78
2022-08-17T02:50:09.200Z,101259.13
2022-08-17T02:52:43.822Z,101260.44
2022-08-17T02:55:34.362Z,101262.84
2022-08-17T02:58:06.011Z,101257.53
2022-08-17T03:00:38.604Z,101252.03
2022-08-17T03:03:09.472Z,101246.53
2022-08-17T03:05:41.915Z,101231.78
2022-08-17T03:08:13.122Z,101238.25
2022-08-17T03:10:43.437Z,101200.06
2022-08-17T03:13:15.870Z,101254.78
2022-08-17T03:15:47.234Z,101239.56
2022-08-17T03:18:25.511Z,101245.72
2022-08-17T03:20:59.221Z,101244.41
2022-08-17T03:23:30.403Z,101248.47
2022-08-17T03:26:00.334Z,101247.31
2022-08-17T03:28:31.620Z,101240.34
2022-08-17T03:31:00.927Z,101241.34
2022-08-17T03:33:30.731Z,101255.59
2022-08-17T03:36:00.373Z,101183.56
2022-08-17T03:38:29.660Z,101252.97
2022-08-17T03:41:09.305Z,101240.53
2022-08-17T03:43:40.045Z,101246.19
2022-08-17T03:46:35.237Z,101241.66
2022-08-17T03:49:23.706Z,101259.00
2022-08-17T03:52:10.700Z,101246.53
2022-08-17T03:54:58.179Z,101239.22
2022-08-17T03:57:28.459Z,101251.50
2022-08-17T03:59:59.879Z,101256.72
2022-08-17T04:02:32.881Z,101247.97
2022-08-17T04:05:02.686Z,101236.00
2022-08-17T04:07:33.280Z,101246.66
2022-08-17T04:10:02.675Z,101258.34
2022-08-17T04:12:47.197Z,101247.16
2022-08-17T04:15:19.446Z,101259.63
2022-08-17T04:17:49.399Z,101252.50
2022-08-17T04:20:22.443Z,101269.81
2022-08-17T04:23:02.265Z,101261.88
2022-08-17T04:25:33.826Z,101237.94
2022-08-17T04:28:04.014Z,101257.00
2022-08-17T04:30:40.473Z,101266.25
2022-08-17T04:33:14.144Z,101267.22
2022-08-17T04:35:47.698Z,101264.16
2022-08-17T04:38:20.942Z,101247.00
2022-08-17T04:41:08.584Z,101265.78
2022-08-17T04:43:40.922Z,101254.91
2022-08-17T04:46:15.896Z,101261.56
2022-08-17T04:48:50.581Z,101269.66
2022-08-17T04:51:23.754Z,101279.06
2022-08-17T04:53:56.565Z,101254.78
2022-08-17T04:56:27.999Z,101276.44
2022-08-17T04:59:01.408Z,101263.81
2022-08-17T05:01:37.150Z,101278.41
2022-08-17T05:04:32.982Z,101267.84
2022-08-17T05:06:58.814Z,101282.91
2022-08-17T05:09:28.244Z,101290.19
2022-08-17T05:12:01.362Z,101290.19
2022-08-17T05:14:32.307Z,101299.72
2022-08-17T05:17:07.323Z,101286.28
2022-08-17T05:19:41.248Z,101297.44
2022-08-17T05:22:10.647Z,101298.94
2022-08-17T05:24:43.690Z,101300.06
2022-08-17T05:27:23.503Z,101303.13
2022-08-17T05:29:52.849Z,101307.97
2022-08-17T05:32:39.321Z,101282.69
2022-08-17T05:35:10.401Z,101301.31
2022-08-17T05:37:39.960Z,101306.69
2022-08-17T05:40:10.762Z,101312.47
2022-08-17T05:42:40.181Z,101320.09
2022-08-17T05:45:11.157Z,101319.47
2022-08-17T05:47:42.451Z,101324.63
2022-08-17T05:50:25.737Z,101279.25
2022-08-17T05:53:07.173Z,101319.31
2022-08-17T05:55:46.955Z,101327.22
2022-08-17T05:58:26.534Z,101310.56
2022-08-17T06:01:09.025Z,101319.31
2022-08-17T06:03:50.851Z,101310.38
2022-08-17T06:06:34.782Z,101327.88
2022-08-17T06:09:26.594Z,101328.34
2022-08-17T06:12:14.440Z,101325.13
2022-08-17T06:15:04.995Z,101326.41
2022-08-17T06:17:35.178Z,101321.69
2022-08-17T06:20:11.797Z,101338.22
2022-08-17T06:22:47.303Z,101313.38
2022-08-17T06:25:20.685Z,101332.06
2022-08-17T06:27:55.712Z,101345.66
2022-08-17T06:30:29.101Z,101354.72
2022-08-17T06:33:25.295Z,101354.72
2022-08-17T06:36:09.231Z,101365.06
2022-08-17T06:38:53.669Z,101360.56
2022-08-17T06:41:36.509Z,101348.56
2022-08-17T06:44:42.258Z,101355.22
2022-08-17T06:47:28.898Z,101347.63
2022-08-17T06:50:11.835Z,101339.00
2022-08-17T06:52:55.239Z,101332.38
2022-08-17T06:55:34.539Z,101360.56
2022-08-17T06:58:16.503Z,101353.00
2022-08-17T07:00:49.129Z,101348.31
2022-08-17T07:03:30.101Z,101341.66
2022-08-17T07:06:05.096Z,101355.09
2022-08-17T07:08:56.783Z,101361.09
2022-08-17T07:11:33.114Z,101350.44
2022-08-17T07:14:31.608Z,101349.47
2022-08-17T07:17:07.658Z,101365.34
2022-08-17T07:19:41.161Z,101343.31
2022-08-17T07:22:27.980Z,101351.09
2022-08-17T07:25:01.618Z,101374.72
2022-08-17T07:27:37.317Z,101363.88
2022-08-17T07:30:11.467Z,101361.94
2022-08-17T07:32:45.347Z,101366.66
2022-08-17T07:35:21.297Z,101369.06
2022-08-17T07:37:54.536Z,101351.44
2022-08-17T07:40:35.399Z,101363.06
2022-08-17T07:43:24.041Z,101351.75
2022-08-17T07:46:32.872Z,101350.13
2022-08-17T07:49:23.450Z,101348.19
2022-08-17T07:52:24.286Z,101355.13
2022-08-17T07:54:51.267Z,101364.38
2022-08-17T07:57:37.210Z,101355.94
2022-08-17T08:00:32.301Z,101367.47
2022-08-17T08:03:17.467Z,101367.28
2022-08-17T08:05:57.504Z,101366.81
2022-08-17T08:08:33.639Z,101357.59
2022-08-17T08:11:08.808Z,101367.28
2022-08-17T08:13:43.921Z,101353.03
2022-08-17T08:16:29.383Z,101360.00
2022-08-17T08:19:01.456Z,101361.78
2022-08-17T08:21:44.570Z,101368.28
2022-08-17T08:24:49.313Z,101360.81
2022-08-17T08:27:32.126Z,101366.34
2022-08-17T08:30:10.096Z,101368.47
2022-08-17T08:33:04.572Z,101356.13
2022-08-17T08:35:41.446Z,101361.63
2022-08-17T08:38:25.565Z,101358.56
2022-08-17T08:41:19.330Z,101362.09
2022-08-17T08:44:03.776Z,101349.75
2022-08-17T08:46:44.410Z,101349.28
2022-08-17T08:50:05.810Z,101349.75
2022-08-17T08:53:01.491Z,101352.63
2022-08-17T08:55:45.051Z,101365.09
2022-08-17T08:58:32.007Z,101350.16
2022-08-17T09:01:22.341Z,101352.75
2022-08-17T09:04:24.730Z,101357.69
2022-08-17T09:07:12.022Z,101355.56
2022-08-17T09:09:59.757Z,101369.13
2022-08-17T09:12:37.782Z,101364.53
2022-08-17T09:15:15.944Z,101367.63
2022-08-17T09:18:14.911Z,101367.81
2022-08-17T09:20:56.783Z,101373.63
2022-08-17T09:23:34.328Z,101367.09
2022-08-17T09:26:22.634Z,101370.47
2022-08-17T09:29:00.357Z,101374.47
2022-08-17T09:31:47.080Z,101373.66
2022-08-17T09:34:33.937Z,101353.94
2022-08-17T09:37:20.003Z,101380.53
2022-08-17T09:40:00.452Z,101367.88
2022-08-17T09:42:38.978Z,101386.63
2022-08-17T09:45:29.509Z,101358.38
2022-08-17T09:48:08.062Z,101392.78
2022-08-17T09:51:04.200Z,101393.59
2022-08-17T09:53:38.774Z,101402.78
2022-08-17T09:56:33.025Z,101406.81
2022-08-17T09:59:38.288Z,101400.22
2022-08-17T10:02:41.555Z,101400.09
2022-08-17T10:05:18.019Z,101397.38
2022-08-17T10:07:56.266Z,101406.63
2022-08-17T10:10:37.695Z,101410.31
2022-08-17T10:13:27.195Z,101408.69
2022-08-17T10:16:07.857Z,101408.09
2022-08-17T10:18:53.134Z,101415.31
2022-08-17T10:21:42.523Z,101405.84
2022-08-17T10:24:36.661Z,101408.66
2022-08-17T10:27:14.484Z,101419.25
2022-08-17T10:29:51.579Z,101408.53
2022-08-17T10:32:32.748Z,101357.50
2022-08-17T10:35:34.094Z,101410.06
2022-08-17T10:38:31.979Z,101419.25
2022-08-17T10:41:17.548Z,101411.34
2022-08-17T10:44:37.289Z,101399.03
2022-08-17T10:47:05.809Z,101415.06
2022-08-17T10:49:36.531Z,101415.56
2022-08-17T10:52:50.204Z,101413.38
2022-08-17T10:55:21.669Z,101406.00
2022-08-17T10:57:54.949Z,101391.47
2022-08-17T11:01:05.935Z,101395.72
2022-08-17T11:03:35.333Z,101386.84
2022-08-17T11:06:19.260Z,101393.63
2022-08-17T11:09:29.788Z,101398.81
2022-08-17T11:12:21.004Z,101404.34
2022-08-17T11:15:23.267Z,101395.47
2022-08-17T11:18:11.454Z,101415.66
2022-08-17T11:21:21.512Z,101404.56
2022-08-17T11:24:16.691Z,101398.09
2022-08-17T11:27:02.252Z,101403.84
2022-08-17T11:29:38.750Z,101399.56
2022-08-17T11:32:28.366Z,101397.59
2022-08-17T11:35:23.359Z,101402.91
2022-08-17T11:38:15.961Z,101394.38
2022-08-17T11:41:14.578Z,101393.00
2022-08-17T11:44:14.339Z,101402.06
2022-08-17T11:47:29.909Z,101408.22
2022-08-17T11:50:54.998Z,101406.56
2022-08-17T11:57:22.475Z,101412.00
2022-08-17T12:00:01.157Z,101417.69
2022-08-17T12:02:48.242Z,101413.63
2022-08-17T12:05:35.408Z,101401.97
2022-08-17T12:08:19.800Z,101419.75
2022-08-17T12:11:05.648Z,101409.69
2022-08-17T12:13:44.212Z,101424.28
2022-08-17T12:16:17.822Z,101407.88
2022-08-17T12:18:53.676Z,101406.97
2022-08-17T12:21:46.341Z,101388.00
2022-08-17T12:24:55.814Z,101399.72
2022-08-17T12:27:59.715Z,101402.22
2022-08-17T12:30:25.902Z,101397.47
2022-08-17T12:32:55.613Z,101390.94
2022-08-17T12:35:33.190Z,101394.16
2022-08-17T12:38:31.814Z,101388.53
2022-08-17T12:41:25.725Z,101374.47
2022-08-17T12:44:02.319Z,101372.31
2022-08-17T12:46:48.619Z,101369.16
2022-08-17T12:49:28.066Z,101383.75
2022-08-17T12:52:14.842Z,101375.06
2022-08-17T12:54:53.236Z,101384.44
2022-08-17T12:57:26.726Z,101364.53
2022-08-17T13:00:00.942Z,101381.59
2022-08-17T13:02:47.746Z,101368.94
2022-08-17T13:05:25.671Z,101382.38
2022-08-17T13:07:56.946Z,101376.81
2022-08-17T13:10:33.039Z,101368.91
2022-08-17T13:13:06.034Z,101367.28
2022-08-17T13:15:44.985Z,101356.59
2022-08-17T13:18:42.105Z,101351.03
2022-08-17T13:21:26.806Z,101345.31
2022-08-17T13:24:03.570Z,101340.41
2022-08-17T13:26:38.700Z,101335.13
2022-08-17T13:29:10.355Z,101338.16
2022-08-17T13:31:52.257Z,101334.19
2022-08-17T13:34:44.553Z,101336.19
2022-08-17T13:37:34.588Z,101342.19
2022-08-17T13:40:30.462Z,101338.50
2022-08-17T13:43:03.449Z,101342.38
2022-08-17T13:45:38.931Z,101336.13
2022-08-17T13:48:14.563Z,101351.19
2022-08-17T13:50:47.504Z,101347.31
2022-08-17T13:53:27.888Z,101345.78
2022-08-17T13:56:02.440Z,101351.97
2022-08-17T13:58:36.599Z,101340.56
2022-08-17T14:01:31.997Z,101351.94
2022-08-17T14:04:06.339Z,101357.88
2022-08-17T14:06:51.963Z,101358.94
2022-08-17T14:09:26.874Z,101351.66
2022-08-17T14:11:58.250Z,101343.44
2022-08-17T14:14:31.784Z,101342.47
2022-08-17T14:17:01.333Z,101347.91
2022-08-17T14:19:30.725Z,101318.56
2022-08-17T14:22:01.681Z,101331.72
2022-08-17T14:24:33.836Z,101330.16
2022-08-17T14:27:05.685Z,101341.00
2022-08-17T14:29:37.206Z,101331.84
2022-08-17T14:32:18.260Z,101341.81
2022-08-17T14:34:49.710Z,101328.63
2022-08-17T14:37:19.748Z,101330.34
2022-08-17T14:39:49.628Z,101332.81
2022-08-17T14:42:18.929Z,101331.19
2022-08-17T14:44:52.266Z,101328.88
2022-08-17T14:47:24.938Z,101332.88
2022-08-17T14:49:56.057Z,101326.63
2022-08-17T14:52:25.340Z,101322.56
2022-08-17T14:54:57.590Z,101319.00
2022-08-17T14:57:34.266Z,101305.44
2022-08-17T15:00:08.313Z,101304.34
2022-08-17T15:02:48.240Z,101304.34
2022-08-17T15:05:20.532Z,101310.06
2022-08-17T15:07:50.108Z,101298.22
2022-08-17T15:10:20.094Z,101291.34
2022-08-17T15:12:51.422Z,101293.72
2022-08-17T15:15:24.967Z,101300.91
2022-08-17T15:17:54.339Z,101290.16
2022-08-17T15:20:27.735Z,101278.09
2022-08-17T15:22:59.482Z,101281.97
2022-08-17T15:25:34.850Z,101291.75
2022-08-17T15:28:04.502Z,101301.06
2022-08-17T15:30:37.146Z,101288.69
2022-08-17T15:33:06.749Z,101290.69
2022-08-17T15:35:39.082Z,101275.44
2022-08-17T15:38:12.638Z,101267.00
2022-08-17T15:40:45.724Z,101293.38
2022-08-17T15:43:27.289Z,101276.50
2022-08-17T15:46:10.772Z,101279.69
2022-08-17T15:48:44.723Z,101278.47
2022-08-17T15:51:16.773Z,101279.75
2022-08-17T15:53:48.155Z,101272.16
2022-08-17T15:56:18.211Z,101285.47
2022-08-17T15:58:50.044Z,101285.50
2022-08-17T16:03:01.512Z,101279.06
2022-08-17T16:04:26.765Z,101286.69
2022-08-17T16:07:01.036Z,101274.25
2022-08-17T16:09:30.287Z,101288.59
2022-08-17T16:11:59.721Z,101277.31
2022-08-17T16:14:33.845Z,101276.34
2022-08-17T16:17:40.042Z,101227.19
2022-08-17T16:19:56.976Z,101257.38
2022-08-17T16:22:34.714Z,101261.88
2022-08-17T16:25:06.921Z,101252.91
2022-08-17T16:27:36.384Z,101260.72
2022-08-17T16:30:08.044Z,101256.56
2022-08-17T16:32:38.876Z,101266.03
2022-08-17T16:35:12.429Z,101255.47
2022-08-17T16:37:45.626Z,101268.88
2022-08-17T16:40:16.913Z,101271.09
2022-08-17T16:42:49.370Z,101254.13
2022-08-17T16:45:24.357Z,101261.84
2022-08-17T16:47:59.216Z,101256.03
2022-08-17T16:50:28.679Z,101263.94
2022-08-17T16:53:06.649Z,101258.19
2022-08-17T16:55:36.893Z,101253.53
2022-08-17T16:58:08.905Z,101242.53
2022-08-17T17:00:38.799Z,101239.31
2022-08-17T17:03:19.239Z,101248.34
2022-08-17T17:06:08.706Z,101245.13
2022-08-17T17:08:44.887Z,101229.81
2022-08-17T17:11:19.475Z,101236.28
2022-08-17T17:13:57.979Z,101238.44
2022-08-17T17:16:38.302Z,101206.22
2022-08-17T17:19:18.047Z,101246.75
2022-08-17T17:22:15.377Z,101234.41
2022-08-17T17:25:02.573Z,101230.47
2022-08-17T17:27:41.217Z,101232.59
2022-08-17T17:30:25.857Z,101219.97
2022-08-17T17:33:00.817Z,101231.97
2022-08-17T17:35:36.959Z,101231.25
2022-08-17T17:38:13.187Z,101244.00
2022-08-17T17:40:45.890Z,101243.91
2022-08-17T17:43:38.179Z,101229.28
2022-08-17T17:46:27.140Z,101247.03
2022-08-17T17:48:57.830Z,101246.16
2022-08-17T17:52:09.525Z,101230.38
2022-08-17T17:55:04.692Z,101247.78
2022-08-17T17:57:55.986Z,101247.25
2022-08-17T18:00:31.119Z,101232.84
2022-08-17T18:03:25.726Z,101240.03
2022-08-17T18:06:25.246Z,101237.56
2022-08-17T18:09:19.332Z,101245.72
2022-08-17T18:12:23.863Z,101246.91
2022-08-17T18:15:21.914Z,101251.13
2022-08-17T18:18:37.649Z,101253.00
2022-08-17T18:21:16.924Z,101250.97
2022-08-17T18:24:00.752Z,101238.72
2022-08-17T18:26:44.934Z,101253.94
2022-08-17T18:29:35.953Z,101257.09
2022-08-17T18:32:31.590Z,101258.53
2022-08-17T18:35:18.455Z,101259.59
2022-08-17T18:37:51.412Z,101252.81
2022-08-17T18:40:37.629Z,101245.59
2022-08-17T18:43:15.000Z,101247.00
2022-08-17T18:45:49.289Z,101243.63
2022-08-17T18:48:30.440Z,101241.03
2022-08-17T18:51:39.872Z,101249.25
2022-08-17T18:54:20.313Z,101249.44
2022-08-17T18:56:58.957Z,101249.69
2022-08-17T18:59:39.059Z,101239.94
2022-08-17T19:02:39.036Z,101234.75
2022-08-17T19:05:29.006Z,101242.88
2022-08-17T19:08:20.237Z,101243.34
2022-08-17T19:10:54.351Z,101235.16
2022-08-17T19:13:32.726Z,101248.06
2022-08-17T19:16:14.069Z,101246.91
2022-08-17T19:18:52.116Z,101242.63
2022-08-17T19:21:26.860Z,101230.63
2022-08-17T19:24:06.197Z,101240.75
2022-08-17T19:26:54.009Z,101232.16
2022-08-17T19:29:38.303Z,101250.84
2022-08-17T19:32:10.563Z,101241.03
2022-08-17T19:34:44.678Z,101240.13
2022-08-17T19:37:26.508Z,101228.53
2022-08-17T19:40:24.475Z,101228.81
2022-08-17T19:43:16.151Z,101231.88
2022-08-17T19:46:02.397Z,101231.31
2022-08-17T19:48:48.418Z,101237.22
2022-08-17T19:51:28.262Z,101222.44
2022-08-17T19:54:06.914Z,101227.19
2022-08-17T19:56:48.682Z,101225.31
2022-08-17T19:59:27.863Z,101212.44
2022-08-17T20:02:24.753Z,101218.88
2022-08-17T20:04:58.018Z,101220.22
2022-08-17T20:07:38.127Z,101223.78
2022-08-17T20:10:12.220Z,101223.72
2022-08-17T20:12:44.723Z,101196.41
2022-08-17T20:15:25.718Z,101216.91
2022-08-17T20:18:02.514Z,101201.16
2022-08-17T20:20:46.734Z,101227.00
2022-08-17T20:23:37.500Z,101237.22
2022-08-17T20:26:19.597Z,101236.41
2022-08-17T20:30:01.110Z,101233.84
2022-08-17T20:32:33.060Z,101218.16
2022-08-17T20:35:24.552Z,101223.88
2022-08-17T20:37:59.346Z,101227.94
2022-08-17T20:40:33.998Z,101232.38
2022-08-17T20:43:46.229Z,101229.31
2022-08-17T20:46:53.155Z,101210.31
2022-08-17T20:49:33.091Z,101225.00
2022-08-17T20:52:08.973Z,101225.81
2022-08-17T20:54:51.884Z,101212.41
2022-08-17T20:57:48.973Z,101210.78
2022-08-17T21:00:45.780Z,101207.56
2022-08-17T21:03:57.839Z,101209.63
2022-08-17T21:06:27.509Z,101208.38
2022-08-17T21:09:20.791Z,101203.72
2022-08-17T21:12:05.430Z,101187.00
2022-08-17T21:14:56.584Z,101187.09
2022-08-17T21:17:44.058Z,101200.31
2022-08-17T21:20:33.199Z,101188.78
2022-08-17T21:23:33.818Z,101192.13
2022-08-17T21:26:30.749Z,101191.19
2022-08-17T21:29:30.905Z,101189.06
2022-08-17T21:32:24.148Z,101204.53
2022-08-17T21:35:28.823Z,101188.03
2022-08-17T21:38:05.231Z,101200.75
2022-08-17T21:40:36.304Z,101178.03
2022-08-17T21:43:26.899Z,101202.44
2022-08-17T21:46:05.483Z,101205.00
2022-08-17T21:48:45.403Z,101194.44
2022-08-17T21:51:23.967Z,101204.72
2022-08-17T21:53:56.839Z,101192.41
2022-08-17T21:56:30.941Z,101195.63
2022-08-17T21:59:06.271Z,101196.31
2022-08-17T22:01:37.534Z,101187.00
2022-08-17T22:04:20.228Z,101187.47
2022-08-17T22:06:57.269Z,101196.03
2022-08-17T22:09:31.603Z,101195.03
2022-08-17T22:12:07.432Z,101165.13
2022-08-17T22:14:51.422Z,101171.78
2022-08-17T22:17:26.447Z,101167.56
2022-08-17T22:19:59.919Z,101160.09
2022-08-17T22:22:56.079Z,101158.81
2022-08-17T22:25:26.930Z,101144.53
2022-08-17T22:28:00.327Z,101164.91
2022-08-17T22:30:36.571Z,101168.41
2022-08-17T22:33:36.318Z,101163.31
2022-08-17T22:36:29.034Z,101150.50
2022-08-17T22:39:02.218Z,101144.72
2022-08-17T22:41:54.082Z,101161.19
2022-08-17T22:44:29.613Z,101156.25
2022-08-17T22:47:11.274Z,101169.13
2022-08-17T22:49:53.557Z,101169.13
2022-08-17T22:52:34.966Z,101148.38
2022-08-17T22:55:32.393Z,101158.78
2022-08-17T22:58:20.341Z,101157.69
2022-08-17T23:00:51.149Z,101159.84
2022-08-17T23:03:25.532Z,101147.88
2022-08-17T23:06:06.667Z,101130.53
2022-08-17T23:08:43.941Z,101132.16
2022-08-17T23:11:14.352Z,101148.53
2022-08-17T23:13:44.499Z,101149.75
2022-08-17T23:16:14.967Z,101142.06
2022-08-17T23:18:48.114Z,101124.56
2022-08-17T23:21:26.698Z,101136.53
2022-08-17T23:23:59.256Z,101124.63
2022-08-17T23:26:30.074Z,101131.47
2022-08-17T23:29:02.406Z,101138.59
2022-08-17T23:31:34.735Z,101130.53
2022-08-17T23:34:09.941Z,101137.81
2022-08-17T23:36:39.865Z,101119.28
2022-08-17T23:39:09.358Z,101132.16
2022-08-17T23:41:41.040Z,101137.00
2022-08-17T23:44:10.321Z,101137.00
2022-08-17T23:46:39.526Z,101124.28
2022-08-17T23:49:10.315Z,101135.56
2022-08-17T23:51:42.586Z,101121.06
2022-08-17T23:54:19.469Z,101128.84
2022-08-17T23:56:51.230Z,101112.69
2022-08-17T23:59:22.949Z,101112.69
